Airfield :
LOGIN :

Register | Disclaimer

   EN    FR    IT 

 










Legend :    VFR   Marginal VFR   IFR   Intensive IFR   Very Intensive IFR
Visi :
Ceiling :
>= 8 km
>= 3000ft
5 to 8 km
1000 to 3000 ft
1500m to 5 km
500 to 1000 ft
800 to 1500m
200 to 500 ft
< 800m
< 200 ft
Symbols :   Thunderstorms  Fog  Heavy snow  Heavy precipitations  Wind > 20 kt
SIGMETs :     Misc.  Thunderstorms  Icing  Turbulence  Mountain Waves  Volcanic Ashes







- Airport Elevation : 407 ft


EGDM - MoD Boscombe Down Amesbury

CURRENT METAR :
  • 241650Z AUTO 05015KT 9999 FEW023/// 11/06 Q1028

EXPIRED METARs :
  • 241550Z 04015KT 9999 SCT023 12/06 Q1028 WHT BECMG FEW023 BLU
  • 241528Z 05016KT 9999 FEW022 11/06 Q1028 BLU NOSIG
  • 241450Z 05014KT 9000 HZ SCT021 12/06 Q1028 WHT BECMG FEW022 BLU

TAF TAF EGDM
Valid from the 24 at 15:00 until the 24 at 18:00 UTC


241339Z 2415/2418 05012KT 9999 BKN018
BECMG 2415/2417 FEW020
No reported NOTAMs for that airfield.
1 SIGMET reported for the London FIR (EGTT) :
 
Severe turbulence
EGTT SIGMET 04 VALID 241500/241900 EGRR
EGTT LONDON FIR SEV TURB FCST S OF N5200 AND E OF W00400 FL180/320 MOV W 15KT NC=



MET'MAP, your aeronautical weather chart ! - Copyright ORBIFLY December 2007 - Disclaimer

ORBIFLY MET'MAP TEAM :

Programming & Development : Alexandra Zaïnal
Concept & Development : Baudouin d'Aumeries
Co-Development & Prog : Marc-Olivier Méhu
Technical & hardware support : Manuel Goepfert

Contact : metmap@orbifly.com




SOURCES & CREDITS :

   NOAA